sensor_id;sensor_type;location;lat;lon;timestamp;temperature;humidity
6421;DHT22;3243;50.958;7.012;2023-07-02T00:00:09;17.10;99.90
6421;DHT22;3243;50.958;7.012;2023-07-02T00:02:36;17.10;99.90
6421;DHT22;3243;50.958;7.012;2023-07-02T00:05:05;17.00;99.90
6421;DHT22;3243;50.958;7.012;2023-07-02T00:07:31;17.10;99.90
6421;DHT22;3243;50.958;7.012;2023-07-02T00:09:59;17.20;99.90
6421;DHT22;3243;50.958;7.012;2023-07-02T00:14:53;17.20;99.90
6421;DHT22;3243;50.958;7.012;2023-07-02T00:22:18;17.20;99.90
6421;DHT22;3243;50.958;7.012;2023-07-02T00:24:45;17.20;99.90
6421;DHT22;3243;50.958;7.012;2023-07-02T00:27:12;17.20;99.90
6421;DHT22;3243;50.958;7.012;2023-07-02T00:32:06;17.20;99.90
6421;DHT22;3243;50.958;7.012;2023-07-02T00:37:00;17.10;99.90
6421;DHT22;3243;50.958;7.012;2023-07-02T00:39:27;17.10;99.90
6421;DHT22;3243;50.958;7.012;2023-07-02T00:44:21;17.10;99.90
6421;DHT22;3243;50.958;7.012;2023-07-02T00:46:50;17.00;99.90
6421;DHT22;3243;50.958;7.012;2023-07-02T00:49:17;17.00;99.90
6421;DHT22;3243;50.958;7.012;2023-07-02T00:54:11;17.00;99.90
6421;DHT22;3243;50.958;7.012;2023-07-02T01:01:33;17.00;99.90
6421;DHT22;3243;50.958;7.012;2023-07-02T01:04:06;16.90;99.90
6421;DHT22;3243;50.958;7.012;2023-07-02T01:06:38;16.90;99.90
6421;DHT22;3243;50.958;7.012;2023-07-02T01:09:10;16.90;99.90
6421;DHT22;3243;50.958;7.012;2023-07-02T01:11:40;16.90;99.90
6421;DHT22;3243;50.958;7.012;2023-07-02T01:16:55;16.80;99.90
6421;DHT22;3243;50.958;7.012;2023-07-02T01:22:08;16.90;99.90
6421;DHT22;3243;50.958;7.012;2023-07-02T01:24:36;16.90;99.90
6421;DHT22;3243;50.958;7.012;2023-07-02T01:27:03;16.90;99.90
6421;DHT22;3243;50.958;7.012;2023-07-02T01:29:31;16.90;99.90
6421;DHT22;3243;50.958;7.012;2023-07-02T01:31:58;16.90;99.90
6421;DHT22;3243;50.958;7.012;2023-07-02T01:34:24;16.90;99.90
6421;DHT22;3243;50.958;7.012;2023-07-02T01:36:51;16.90;99.90
6421;DHT22;3243;50.958;7.012;2023-07-02T01:44:17;16.80;99.90
6421;DHT22;3243;50.958;7.012;2023-07-02T01:46:45;16.80;99.90
6421;DHT22;3243;50.958;7.012;2023-07-02T01:49:18;16.90;99.90
6421;DHT22;3243;50.958;7.012;2023-07-02T01:51:49;16.80;99.90
6421;DHT22;3243;50.958;7.012;2023-07-02T01:54:15;16.90;99.90
6421;DHT22;3243;50.958;7.012;2023-07-02T01:56:42;16.80;99.90
6421;DHT22;3243;50.958;7.012;2023-07-02T02:01:37;16.80;99.90
6421;DHT22;3243;50.958;7.012;2023-07-02T02:04:08;16.70;99.90
6421;DHT22;3243;50.958;7.012;2023-07-02T02:06:35;16.70;99.90
6421;DHT22;3243;50.958;7.012;2023-07-02T02:09:03;16.70;99.90
6421;DHT22;3243;50.958;7.012;2023-07-02T02:11:36;16.70;99.90
6421;DHT22;3243;50.958;7.012;2023-07-02T02:14:03;16.70;99.90
6421;DHT22;3243;50.958;7.012;2023-07-02T02:16:30;16.70;99.90
6421;DHT22;3243;50.958;7.012;2023-07-02T02:18:57;16.70;99.90
6421;DHT22;3243;50.958;7.012;2023-07-02T02:28:48;16.60;99.90
6421;DHT22;3243;50.958;7.012;2023-07-02T02:36:10;16.60;99.90
6421;DHT22;3243;50.958;7.012;2023-07-02T02:38:37;16.60;99.90
6421;DHT22;3243;50.958;7.012;2023-07-02T02:41:04;16.60;99.90
6421;DHT22;3243;50.958;7.012;2023-07-02T02:50:52;16.50;99.90
6421;DHT22;3243;50.958;7.012;2023-07-02T02:55:46;16.40;99.90
6421;DHT22;3243;50.958;7.012;2023-07-02T03:03:12;16.40;99.90
6421;DHT22;3243;50.958;7.012;2023-07-02T03:08:07;16.40;99.90
6421;DHT22;3243;50.958;7.012;2023-07-02T03:13:01;16.40;99.90
6421;DHT22;3243;50.958;7.012;2023-07-02T03:17:56;16.40;99.90
6421;DHT22;3243;50.958;7.012;2023-07-02T03:20:24;16.40;99.90
6421;DHT22;3243;50.958;7.012;2023-07-02T03:22:51;16.40;99.90
6421;DHT22;3243;50.958;7.012;2023-07-02T03:25:17;16.40;99.90
6421;DHT22;3243;50.958;7.012;2023-07-02T03:37:33;16.40;99.90
6421;DHT22;3243;50.958;7.012;2023-07-02T03:44:54;16.30;99.90
6421;DHT22;3243;50.958;7.012;2023-07-02T03:49:48;16.40;99.90
6421;DHT22;3243;50.958;7.012;2023-07-02T03:52:15;16.40;99.90
6421;DHT22;3243;50.958;7.012;2023-07-02T03:57:09;16.50;99.90
6421;DHT22;3243;50.958;7.012;2023-07-02T04:09:25;16.50;99.90
6421;DHT22;3243;50.958;7.012;2023-07-02T04:11:52;16.60;99.90
6421;DHT22;3243;50.958;7.012;2023-07-02T04:16:46;16.60;99.90
6421;DHT22;3243;50.958;7.012;2023-07-02T04:19:12;16.60;99.90
6421;DHT22;3243;50.958;7.012;2023-07-02T04:21:39;16.70;99.90
6421;DHT22;3243;50.958;7.012;2023-07-02T04:24:06;16.70;99.90
6421;DHT22;3243;50.958;7.012;2023-07-02T04:26:34;16.70;99.90
6421;DHT22;3243;50.958;7.012;2023-07-02T04:29:20;16.80;99.90
6421;DHT22;3243;50.958;7.012;2023-07-02T04:36:43;16.90;99.90
6421;DHT22;3243;50.958;7.012;2023-07-02T04:41:37;16.80;99.90
6421;DHT22;3243;50.958;7.012;2023-07-02T04:48:58;17.00;99.90
6421;DHT22;3243;50.958;7.012;2023-07-02T04:51:25;17.00;99.90
6421;DHT22;3243;50.958;7.012;2023-07-02T04:56:19;17.00;99.90
6421;DHT22;3243;50.958;7.012;2023-07-02T05:03:40;17.10;99.90
6421;DHT22;3243;50.958;7.012;2023-07-02T05:06:07;17.20;99.90
6421;DHT22;3243;50.958;7.012;2023-07-02T05:13:30;17.20;99.90
6421;DHT22;3243;50.958;7.012;2023-07-02T05:18:24;17.20;99.90
6421;DHT22;3243;50.958;7.012;2023-07-02T05:28:13;17.30;99.90
6421;DHT22;3243;50.958;7.012;2023-07-02T05:35:35;17.70;99.90
6421;DHT22;3243;50.958;7.012;2023-07-02T05:50:21;18.00;99.90
6421;DHT22;3243;50.958;7.012;2023-07-02T05:52:48;18.00;99.90
6421;DHT22;3243;50.958;7.012;2023-07-02T05:55:14;18.10;99.90
6421;DHT22;3243;50.958;7.012;2023-07-02T06:00:09;18.20;99.90
6421;DHT22;3243;50.958;7.012;2023-07-02T06:02:36;18.30;99.90
6421;DHT22;3243;50.958;7.012;2023-07-02T06:05:03;18.50;99.90
6421;DHT22;3243;50.958;7.012;2023-07-02T06:12:24;18.90;99.90
6421;DHT22;3243;50.958;7.012;2023-07-02T06:14:51;19.10;99.90
6421;DHT22;3243;50.958;7.012;2023-07-02T06:19:47;19.70;99.90
6421;DHT22;3243;50.958;7.012;2023-07-02T06:22:14;19.90;99.90
6421;DHT22;3243;50.958;7.012;2023-07-02T06:29:35;19.60;99.90
6421;DHT22;3243;50.958;7.012;2023-07-02T06:46:46;19.60;99.90
6421;DHT22;3243;50.958;7.012;2023-07-02T06:49:13;19.70;99.90
6421;DHT22;3243;50.958;7.012;2023-07-02T06:51:40;19.80;99.90
6421;DHT22;3243;50.958;7.012;2023-07-02T06:56:35;20.00;99.90
6421;DHT22;3243;50.958;7.012;2023-07-02T07:01:29;19.90;99.90
6421;DHT22;3243;50.958;7.012;2023-07-02T07:03:55;19.80;99.90
6421;DHT22;3243;50.958;7.012;2023-07-02T07:06:22;19.60;99.90
6421;DHT22;3243;50.958;7.012;2023-07-02T07:13:43;20.00;99.90
6421;DHT22;3243;50.958;7.012;2023-07-02T07:16:11;20.20;99.90
6421;DHT22;3243;50.958;7.012;2023-07-02T07:23:32;20.50;99.90
6421;DHT22;3243;50.958;7.012;2023-07-02T07:25:59;20.30;99.90
6421;DHT22;3243;50.958;7.012;2023-07-02T07:38:15;20.10;99.90
6421;DHT22;3243;50.958;7.012;2023-07-02T07:40:43;20.00;99.90
6421;DHT22;3243;50.958;7.012;2023-07-02T07:45:37;20.20;99.90
6421;DHT22;3243;50.958;7.012;2023-07-02T07:48:07;20.20;99.90
6421;DHT22;3243;50.958;7.012;2023-07-02T07:53:01;20.70;99.90
6421;DHT22;3243;50.958;7.012;2023-07-02T07:55:27;21.00;99.90
6421;DHT22;3243;50.958;7.012;2023-07-02T08:00:21;21.10;99.90
6421;DHT22;3243;50.958;7.012;2023-07-02T08:10:13;21.50;99.90
6421;DHT22;3243;50.958;7.012;2023-07-02T08:12:40;21.20;99.90
6421;DHT22;3243;50.958;7.012;2023-07-02T08:17:34;21.20;99.90
6421;DHT22;3243;50.958;7.012;2023-07-02T08:22:30;21.00;99.90
6421;DHT22;3243;50.958;7.012;2023-07-02T08:27:24;20.50;99.90
6421;DHT22;3243;50.958;7.012;2023-07-02T08:29:52;20.30;99.90
6421;DHT22;3243;50.958;7.012;2023-07-02T08:32:19;20.40;99.90
6421;DHT22;3243;50.958;7.012;2023-07-02T08:37:13;20.60;99.90
6421;DHT22;3243;50.958;7.012;2023-07-02T08:42:07;20.90;99.90
6421;DHT22;3243;50.958;7.012;2023-07-02T08:44:34;21.00;99.90
6421;DHT22;3243;50.958;7.012;2023-07-02T08:51:57;21.10;99.90
6421;DHT22;3243;50.958;7.012;2023-07-02T08:56:51;21.60;99.90
6421;DHT22;3243;50.958;7.012;2023-07-02T09:04:23;22.70;99.90
6421;DHT22;3243;50.958;7.012;2023-07-02T09:07:07;22.70;99.90
6421;DHT22;3243;50.958;7.012;2023-07-02T09:09:50;22.50;99.90
6421;DHT22;3243;50.958;7.012;2023-07-02T09:15:03;22.00;99.90
6421;DHT22;3243;50.958;7.012;2023-07-02T09:17:34;21.70;99.90
6421;DHT22;3243;50.958;7.012;2023-07-02T09:22:31;22.00;99.90
6421;DHT22;3243;50.958;7.012;2023-07-02T09:27:40;22.00;99.90
6421;DHT22;3243;50.958;7.012;2023-07-02T09:30:08;22.20;99.90
6421;DHT22;3243;50.958;7.012;2023-07-02T09:32:35;22.50;99.90
6421;DHT22;3243;50.958;7.012;2023-07-02T09:35:02;22.50;99.90
6421;DHT22;3243;50.958;7.012;2023-07-02T09:37:31;22.40;99.90
6421;DHT22;3243;50.958;7.012;2023-07-02T09:44:55;21.90;99.90
6421;DHT22;3243;50.958;7.012;2023-07-02T09:47:25;21.80;99.90
6421;DHT22;3243;50.958;7.012;2023-07-02T09:49:53;21.80;99.90
6421;DHT22;3243;50.958;7.012;2023-07-02T09:52:21;21.80;99.90
6421;DHT22;3243;50.958;7.012;2023-07-02T10:02:10;22.40;99.90
6421;DHT22;3243;50.958;7.012;2023-07-02T10:04:55;22.70;99.90
6421;DHT22;3243;50.958;7.012;2023-07-02T10:07:31;22.70;99.90
6421;DHT22;3243;50.958;7.012;2023-07-02T10:09:59;23.10;99.90
6421;DHT22;3243;50.958;7.012;2023-07-02T10:12:27;23.10;99.90
6421;DHT22;3243;50.958;7.012;2023-07-02T10:14:58;23.30;99.90
6421;DHT22;3243;50.958;7.012;2023-07-02T10:17:33;23.10;99.90
6421;DHT22;3243;50.958;7.012;2023-07-02T10:20:05;23.00;99.90
6421;DHT22;3243;50.958;7.012;2023-07-02T10:22:48;22.60;99.90
6421;DHT22;3243;50.958;7.012;2023-07-02T10:25:46;22.50;99.90
6421;DHT22;3243;50.958;7.012;2023-07-02T10:28:18;22.50;99.90
6421;DHT22;3243;50.958;7.012;2023-07-02T10:33:20;22.20;99.90
6421;DHT22;3243;50.958;7.012;2023-07-02T10:35:49;22.00;99.90
6421;DHT22;3243;50.958;7.012;2023-07-02T10:38:20;22.00;99.90
6421;DHT22;3243;50.958;7.012;2023-07-02T10:40:57;22.00;99.90
6421;DHT22;3243;50.958;7.012;2023-07-02T10:43:28;21.90;99.90
6421;DHT22;3243;50.958;7.012;2023-07-02T10:45:57;22.10;99.90
6421;DHT22;3243;50.958;7.012;2023-07-02T10:50:54;22.20;99.90
6421;DHT22;3243;50.958;7.012;2023-07-02T10:55:56;22.10;99.90
6421;DHT22;3243;50.958;7.012;2023-07-02T10:58:24;22.00;99.90
6421;DHT22;3243;50.958;7.012;2023-07-02T11:00:51;22.00;99.90
6421;DHT22;3243;50.958;7.012;2023-07-02T11:03:23;22.20;99.90
6421;DHT22;3243;50.958;7.012;2023-07-02T11:05:52;22.00;99.90
6421;DHT22;3243;50.958;7.012;2023-07-02T11:11:09;22.00;99.90
6421;DHT22;3243;50.958;7.012;2023-07-02T11:13:47;22.00;99.90
6421;DHT22;3243;50.958;7.012;2023-07-02T11:16:27;22.00;99.90
6421;DHT22;3243;50.958;7.012;2023-07-02T11:19:08;22.00;99.90
6421;DHT22;3243;50.958;7.012;2023-07-02T11:21:35;22.20;99.90
6421;DHT22;3243;50.958;7.012;2023-07-02T11:24:07;22.00;99.90
6421;DHT22;3243;50.958;7.012;2023-07-02T11:26:36;21.90;99.90
6421;DHT22;3243;50.958;7.012;2023-07-02T11:31:30;22.30;99.90
6421;DHT22;3243;50.958;7.012;2023-07-02T11:36:24;23.00;99.90
6421;DHT22;3243;50.958;7.012;2023-07-02T11:41:19;22.80;99.90
6421;DHT22;3243;50.958;7.012;2023-07-02T11:48:42;22.90;99.90
6421;DHT22;3243;50.958;7.012;2023-07-02T11:51:09;23.00;99.90
6421;DHT22;3243;50.958;7.012;2023-07-02T11:56:03;22.60;99.90
6421;DHT22;3243;50.958;7.012;2023-07-02T12:10:45;22.60;99.90
6421;DHT22;3243;50.958;7.012;2023-07-02T12:15:40;22.20;99.90
6421;DHT22;3243;50.958;7.012;2023-07-02T12:18:07;22.40;99.90
6421;DHT22;3243;50.958;7.012;2023-07-02T12:20:34;22.70;99.90
6421;DHT22;3243;50.958;7.012;2023-07-02T12:25:28;22.70;99.90
6421;DHT22;3243;50.958;7.012;2023-07-02T12:37:45;23.20;99.90
6421;DHT22;3243;50.958;7.012;2023-07-02T12:40:13;23.40;99.90
6421;DHT22;3243;50.958;7.012;2023-07-02T12:42:41;23.50;99.90
6421;DHT22;3243;50.958;7.012;2023-07-02T12:45:09;23.90;99.90
6421;DHT22;3243;50.958;7.012;2023-07-02T12:47:41;24.00;99.90
6421;DHT22;3243;50.958;7.012;2023-07-02T12:50:09;23.90;99.90
6421;DHT22;3243;50.958;7.012;2023-07-02T12:52:36;23.70;99.90
6421;DHT22;3243;50.958;7.012;2023-07-02T12:55:04;23.80;99.90
6421;DHT22;3243;50.958;7.012;2023-07-02T13:04:52;23.30;99.90
6421;DHT22;3243;50.958;7.012;2023-07-02T13:17:08;23.20;99.90
6421;DHT22;3243;50.958;7.012;2023-07-02T13:24:33;23.10;99.90
6421;DHT22;3243;50.958;7.012;2023-07-02T13:27:05;23.50;99.90
6421;DHT22;3243;50.958;7.012;2023-07-02T13:29:41;23.80;99.90
6421;DHT22;3243;50.958;7.012;2023-07-02T13:32:08;23.70;99.90
6421;DHT22;3243;50.958;7.012;2023-07-02T13:39:30;23.70;99.90
6421;DHT22;3243;50.958;7.012;2023-07-02T13:41:57;23.60;99.90
6421;DHT22;3243;50.958;7.012;2023-07-02T13:46:51;23.70;99.90
6421;DHT22;3243;50.958;7.012;2023-07-02T13:51:48;23.60;99.90
6421;DHT22;3243;50.958;7.012;2023-07-02T13:54:16;23.50;99.90
6421;DHT22;3243;50.958;7.012;2023-07-02T13:56:46;23.50;99.90
6421;DHT22;3243;50.958;7.012;2023-07-02T13:59:17;23.60;99.90
6421;DHT22;3243;50.958;7.012;2023-07-02T14:01:44;23.90;99.90
6421;DHT22;3243;50.958;7.012;2023-07-02T14:04:13;24.00;99.90
6421;DHT22;3243;50.958;7.012;2023-07-02T14:06:40;24.10;99.90
6421;DHT22;3243;50.958;7.012;2023-07-02T14:11:40;23.70;99.90
6421;DHT22;3243;50.958;7.012;2023-07-02T14:14:07;23.80;99.90
6421;DHT22;3243;50.958;7.012;2023-07-02T14:21:29;23.50;99.90
6421;DHT22;3243;50.958;7.012;2023-07-02T14:23:56;23.50;99.90
6421;DHT22;3243;50.958;7.012;2023-07-02T14:31:17;23.70;99.90
6421;DHT22;3243;50.958;7.012;2023-07-02T14:36:11;24.10;99.90
6421;DHT22;3243;50.958;7.012;2023-07-02T14:38:38;24.10;99.90
6421;DHT22;3243;50.958;7.012;2023-07-02T14:43:32;24.00;99.90
6421;DHT22;3243;50.958;7.012;2023-07-02T14:46:02;23.90;99.90
6421;DHT22;3243;50.958;7.012;2023-07-02T14:48:29;23.90;99.90
6421;DHT22;3243;50.958;7.012;2023-07-02T14:50:58;23.90;99.90
6421;DHT22;3243;50.958;7.012;2023-07-02T14:53:26;23.90;99.90
6421;DHT22;3243;50.958;7.012;2023-07-02T14:55:55;23.70;99.90
6421;DHT22;3243;50.958;7.012;2023-07-02T14:58:23;23.70;99.90
6421;DHT22;3243;50.958;7.012;2023-07-02T15:00:53;23.80;99.90
6421;DHT22;3243;50.958;7.012;2023-07-02T15:03:21;23.90;99.90
6421;DHT22;3243;50.958;7.012;2023-07-02T15:05:50;23.90;99.90
6421;DHT22;3243;50.958;7.012;2023-07-02T15:08:18;23.60;99.90
6421;DHT22;3243;50.958;7.012;2023-07-02T15:10:52;23.50;99.90
6421;DHT22;3243;50.958;7.012;2023-07-02T15:13:19;23.40;99.90
6421;DHT22;3243;50.958;7.012;2023-07-02T15:18:18;23.70;99.90
6421;DHT22;3243;50.958;7.012;2023-07-02T15:20:49;24.00;99.90
6421;DHT22;3243;50.958;7.012;2023-07-02T15:23:17;24.30;99.90
6421;DHT22;3243;50.958;7.012;2023-07-02T15:25:50;24.60;99.90
6421;DHT22;3243;50.958;7.012;2023-07-02T15:28:18;24.70;99.90
6421;DHT22;3243;50.958;7.012;2023-07-02T15:30:50;24.60;99.90
6421;DHT22;3243;50.958;7.012;2023-07-02T15:33:17;24.50;99.90
6421;DHT22;3243;50.958;7.012;2023-07-02T15:35:44;24.30;99.90
6421;DHT22;3243;50.958;7.012;2023-07-02T15:38:11;24.30;99.90
6421;DHT22;3243;50.958;7.012;2023-07-02T15:40:38;24.20;99.90
6421;DHT22;3243;50.958;7.012;2023-07-02T15:43:05;24.00;99.90
6421;DHT22;3243;50.958;7.012;2023-07-02T15:45:32;23.90;99.90
6421;DHT22;3243;50.958;7.012;2023-07-02T15:47:59;23.70;99.90
6421;DHT22;3243;50.958;7.012;2023-07-02T15:50:26;23.70;99.90
6421;DHT22;3243;50.958;7.012;2023-07-02T15:52:52;23.40;99.90
6421;DHT22;3243;50.958;7.012;2023-07-02T15:55:20;23.40;99.90
6421;DHT22;3243;50.958;7.012;2023-07-02T15:57:47;23.70;99.90
6421;DHT22;3243;50.958;7.012;2023-07-02T16:00:15;23.90;99.90
6421;DHT22;3243;50.958;7.012;2023-07-02T16:02:43;23.80;99.90
6421;DHT22;3243;50.958;7.012;2023-07-02T16:05:13;23.80;99.90
6421;DHT22;3243;50.958;7.012;2023-07-02T16:07:40;23.90;99.90
6421;DHT22;3243;50.958;7.012;2023-07-02T16:10:08;23.90;99.90
6421;DHT22;3243;50.958;7.012;2023-07-02T16:12:35;23.90;99.90
6421;DHT22;3243;50.958;7.012;2023-07-02T16:15:02;23.50;99.90
6421;DHT22;3243;50.958;7.012;2023-07-02T16:17:29;23.10;99.90
6421;DHT22;3243;50.958;7.012;2023-07-02T16:19:56;23.30;99.90
6421;DHT22;3243;50.958;7.012;2023-07-02T16:22:29;23.40;99.90
6421;DHT22;3243;50.958;7.012;2023-07-02T16:24:56;23.50;99.90
6421;DHT22;3243;50.958;7.012;2023-07-02T16:27:23;23.50;99.90
6421;DHT22;3243;50.958;7.012;2023-07-02T16:29:50;23.40;99.90
6421;DHT22;3243;50.958;7.012;2023-07-02T16:32:16;23.40;99.90
6421;DHT22;3243;50.958;7.012;2023-07-02T16:34:46;23.40;99.90
6421;DHT22;3243;50.958;7.012;2023-07-02T16:37:13;23.50;99.90
6421;DHT22;3243;50.958;7.012;2023-07-02T16:39:40;23.50;99.90
6421;DHT22;3243;50.958;7.012;2023-07-02T16:44:34;23.30;99.90
6421;DHT22;3243;50.958;7.012;2023-07-02T16:47:04;23.20;99.90
6421;DHT22;3243;50.958;7.012;2023-07-02T16:49:31;22.90;99.90
6421;DHT22;3243;50.958;7.012;2023-07-02T16:51:58;22.90;99.90
6421;DHT22;3243;50.958;7.012;2023-07-02T16:54:25;22.90;99.90
6421;DHT22;3243;50.958;7.012;2023-07-02T16:56:57;23.10;99.90
6421;DHT22;3243;50.958;7.012;2023-07-02T16:59:26;23.20;99.90
6421;DHT22;3243;50.958;7.012;2023-07-02T17:01:56;23.20;99.90
6421;DHT22;3243;50.958;7.012;2023-07-02T17:04:24;23.30;99.90
6421;DHT22;3243;50.958;7.012;2023-07-02T17:06:57;22.90;99.90
6421;DHT22;3243;50.958;7.012;2023-07-02T17:09:33;22.80;99.90
6421;DHT22;3243;50.958;7.012;2023-07-02T17:12:02;22.40;99.90
6421;DHT22;3243;50.958;7.012;2023-07-02T17:14:32;22.30;99.90
6421;DHT22;3243;50.958;7.012;2023-07-02T17:17:02;22.30;99.90
6421;DHT22;3243;50.958;7.012;2023-07-02T17:19:35;22.40;99.90
6421;DHT22;3243;50.958;7.012;2023-07-02T17:22:04;22.70;99.90
6421;DHT22;3243;50.958;7.012;2023-07-02T17:24:34;22.90;99.90
6421;DHT22;3243;50.958;7.012;2023-07-02T17:27:02;22.90;99.90
6421;DHT22;3243;50.958;7.012;2023-07-02T17:29:29;22.90;99.90
6421;DHT22;3243;50.958;7.012;2023-07-02T17:32:01;22.90;99.90
6421;DHT22;3243;50.958;7.012;2023-07-02T17:34:29;22.80;99.90
6421;DHT22;3243;50.958;7.012;2023-07-02T17:37:04;22.80;99.90
6421;DHT22;3243;50.958;7.012;2023-07-02T17:39:32;22.90;99.90
6421;DHT22;3243;50.958;7.012;2023-07-02T17:41:59;22.80;99.90
6421;DHT22;3243;50.958;7.012;2023-07-02T17:44:32;22.80;99.90
6421;DHT22;3243;50.958;7.012;2023-07-02T17:47:02;22.90;99.90
6421;DHT22;3243;50.958;7.012;2023-07-02T17:49:36;22.90;99.90
6421;DHT22;3243;50.958;7.012;2023-07-02T17:52:03;22.90;99.90
6421;DHT22;3243;50.958;7.012;2023-07-02T17:54:43;22.80;99.90
6421;DHT22;3243;50.958;7.012;2023-07-02T17:57:11;22.70;99.90
6421;DHT22;3243;50.958;7.012;2023-07-02T17:59:39;22.40;99.90
6421;DHT22;3243;50.958;7.012;2023-07-02T18:02:08;22.40;99.90
6421;DHT22;3243;50.958;7.012;2023-07-02T18:04:36;22.30;99.90
6421;DHT22;3243;50.958;7.012;2023-07-02T18:07:08;22.20;99.90
6421;DHT22;3243;50.958;7.012;2023-07-02T18:09:38;22.00;99.90
6421;DHT22;3243;50.958;7.012;2023-07-02T18:12:07;21.90;99.90
6421;DHT22;3243;50.958;7.012;2023-07-02T18:14:35;21.80;99.90
6421;DHT22;3243;50.958;7.012;2023-07-02T18:17:02;21.70;99.90
6421;DHT22;3243;50.958;7.012;2023-07-02T18:19:28;21.70;99.90
6421;DHT22;3243;50.958;7.012;2023-07-02T18:21:56;21.60;99.90
6421;DHT22;3243;50.958;7.012;2023-07-02T18:24:28;21.70;99.90
6421;DHT22;3243;50.958;7.012;2023-07-02T18:26:56;21.60;99.90
6421;DHT22;3243;50.958;7.012;2023-07-02T18:29:23;21.70;99.90
6421;DHT22;3243;50.958;7.012;2023-07-02T18:31:50;21.70;99.90
6421;DHT22;3243;50.958;7.012;2023-07-02T18:34:16;21.60;99.90
6421;DHT22;3243;50.958;7.012;2023-07-02T18:36:44;21.70;99.90
6421;DHT22;3243;50.958;7.012;2023-07-02T18:39:16;21.70;99.90
6421;DHT22;3243;50.958;7.012;2023-07-02T18:41:52;21.70;99.90
6421;DHT22;3243;50.958;7.012;2023-07-02T18:44:19;21.70;99.90
6421;DHT22;3243;50.958;7.012;2023-07-02T18:46:46;21.70;99.90
6421;DHT22;3243;50.958;7.012;2023-07-02T18:49:15;21.60;99.90
6421;DHT22;3243;50.958;7.012;2023-07-02T18:51:42;21.60;99.90
6421;DHT22;3243;50.958;7.012;2023-07-02T18:54:09;21.50;99.90
6421;DHT22;3243;50.958;7.012;2023-07-02T18:56:35;21.50;99.90
6421;DHT22;3243;50.958;7.012;2023-07-02T18:59:02;21.40;99.90
6421;DHT22;3243;50.958;7.012;2023-07-02T19:01:29;21.30;99.90
6421;DHT22;3243;50.958;7.012;2023-07-02T19:03:56;21.20;99.90
6421;DHT22;3243;50.958;7.012;2023-07-02T19:06:24;21.20;99.90
6421;DHT22;3243;50.958;7.012;2023-07-02T19:08:51;21.10;99.90
6421;DHT22;3243;50.958;7.012;2023-07-02T19:11:17;21.00;99.90
6421;DHT22;3243;50.958;7.012;2023-07-02T19:13:44;21.00;99.90
6421;DHT22;3243;50.958;7.012;2023-07-02T19:16:11;21.00;99.90
6421;DHT22;3243;50.958;7.012;2023-07-02T19:18:38;20.90;99.90
6421;DHT22;3243;50.958;7.012;2023-07-02T19:21:04;20.90;99.90
6421;DHT22;3243;50.958;7.012;2023-07-02T19:23:37;20.90;99.90
6421;DHT22;3243;50.958;7.012;2023-07-02T19:26:03;20.90;99.90
6421;DHT22;3243;50.958;7.012;2023-07-02T19:28:30;20.90;99.90
6421;DHT22;3243;50.958;7.012;2023-07-02T19:31:01;20.80;99.90
6421;DHT22;3243;50.958;7.012;2023-07-02T19:33:28;20.80;99.90
6421;DHT22;3243;50.958;7.012;2023-07-02T19:38:22;20.70;99.90
6421;DHT22;3243;50.958;7.012;2023-07-02T19:40:56;20.70;99.90
6421;DHT22;3243;50.958;7.012;2023-07-02T19:43:24;20.70;99.90
6421;DHT22;3243;50.958;7.012;2023-07-02T19:45:51;20.60;99.90
6421;DHT22;3243;50.958;7.012;2023-07-02T19:48:19;20.50;99.90
6421;DHT22;3243;50.958;7.012;2023-07-02T19:50:46;20.50;99.90
6421;DHT22;3243;50.958;7.012;2023-07-02T19:53:13;20.40;99.90
6421;DHT22;3243;50.958;7.012;2023-07-02T19:58:10;20.30;99.90
6421;DHT22;3243;50.958;7.012;2023-07-02T20:00:37;20.30;99.90
6421;DHT22;3243;50.958;7.012;2023-07-02T20:03:03;20.30;99.90
6421;DHT22;3243;50.958;7.012;2023-07-02T20:05:33;20.40;99.90
6421;DHT22;3243;50.958;7.012;2023-07-02T20:08:00;20.40;99.90
6421;DHT22;3243;50.958;7.012;2023-07-02T20:12:54;20.40;99.90
6421;DHT22;3243;50.958;7.012;2023-07-02T20:15:21;20.40;99.90
6421;DHT22;3243;50.958;7.012;2023-07-02T20:17:48;20.30;99.90
6421;DHT22;3243;50.958;7.012;2023-07-02T20:20:15;20.40;99.90
6421;DHT22;3243;50.958;7.012;2023-07-02T20:25:14;20.30;99.90
6421;DHT22;3243;50.958;7.012;2023-07-02T20:30:29;20.20;99.90
6421;DHT22;3243;50.958;7.012;2023-07-02T20:37:51;20.10;99.90
6421;DHT22;3243;50.958;7.012;2023-07-02T20:40:18;20.00;99.90
6421;DHT22;3243;50.958;7.012;2023-07-02T20:42:45;20.00;99.90
6421;DHT22;3243;50.958;7.012;2023-07-02T20:45:12;19.90;99.90
6421;DHT22;3243;50.958;7.012;2023-07-02T20:47:41;20.00;99.90
6421;DHT22;3243;50.958;7.012;2023-07-02T20:50:10;19.90;99.90
6421;DHT22;3243;50.958;7.012;2023-07-02T20:55:05;19.90;99.90
6421;DHT22;3243;50.958;7.012;2023-07-02T20:59:59;19.80;99.90
6421;DHT22;3243;50.958;7.012;2023-07-02T21:02:26;19.90;99.90
6421;DHT22;3243;50.958;7.012;2023-07-02T21:04:57;19.90;99.90
6421;DHT22;3243;50.958;7.012;2023-07-02T21:07:25;19.90;99.90
6421;DHT22;3243;50.958;7.012;2023-07-02T21:09:52;19.80;99.90
6421;DHT22;3243;50.958;7.012;2023-07-02T21:12:19;19.80;99.90
6421;DHT22;3243;50.958;7.012;2023-07-02T21:14:53;19.80;99.90
6421;DHT22;3243;50.958;7.012;2023-07-02T21:17:20;19.70;99.90
6421;DHT22;3243;50.958;7.012;2023-07-02T21:19:47;19.70;99.90
6421;DHT22;3243;50.958;7.012;2023-07-02T21:24:41;19.60;99.90
6421;DHT22;3243;50.958;7.012;2023-07-02T21:29:35;19.40;99.90
6421;DHT22;3243;50.958;7.012;2023-07-02T21:34:29;19.20;99.90
6421;DHT22;3243;50.958;7.012;2023-07-02T21:36:57;19.20;99.90
6421;DHT22;3243;50.958;7.012;2023-07-02T21:39:24;19.10;99.90
6421;DHT22;3243;50.958;7.012;2023-07-02T21:46:45;18.90;99.90
6421;DHT22;3243;50.958;7.012;2023-07-02T21:49:12;18.80;99.90
6421;DHT22;3243;50.958;7.012;2023-07-02T22:03:56;18.50;99.90
6421;DHT22;3243;50.958;7.012;2023-07-02T22:06:23;18.50;99.90
6421;DHT22;3243;50.958;7.012;2023-07-02T22:11:17;18.30;99.90
6421;DHT22;3243;50.958;7.012;2023-07-02T22:13:50;18.20;99.90
6421;DHT22;3243;50.958;7.012;2023-07-02T22:18:44;18.00;99.90
6421;DHT22;3243;50.958;7.012;2023-07-02T22:21:12;17.90;99.90
6421;DHT22;3243;50.958;7.012;2023-07-02T22:26:09;17.80;99.90
6421;DHT22;3243;50.958;7.012;2023-07-02T22:33:32;17.70;99.90
6421;DHT22;3243;50.958;7.012;2023-07-02T23:02:59;17.00;99.90
6421;DHT22;3243;50.958;7.012;2023-07-02T23:07:53;16.90;99.90
6421;DHT22;3243;50.958;7.012;2023-07-02T23:12:50;16.80;99.90
6421;DHT22;3243;50.958;7.012;2023-07-02T23:15:19;16.80;99.90
6421;DHT22;3243;50.958;7.012;2023-07-02T23:17:48;16.70;99.90
6421;DHT22;3243;50.958;7.012;2023-07-02T23:20:15;16.70;99.90
6421;DHT22;3243;50.958;7.012;2023-07-02T23:22:46;16.70;99.90
6421;DHT22;3243;50.958;7.012;2023-07-02T23:25:16;16.70;99.90
6421;DHT22;3243;50.958;7.012;2023-07-02T23:27:50;16.60;99.90
6421;DHT22;3243;50.958;7.012;2023-07-02T23:30:20;16.60;99.90
6421;DHT22;3243;50.958;7.012;2023-07-02T23:32:51;16.50;99.90
6421;DHT22;3243;50.958;7.012;2023-07-02T23:40:17;16.50;99.90
6421;DHT22;3243;50.958;7.012;2023-07-02T23:42:44;16.50;99.90
6421;DHT22;3243;50.958;7.012;2023-07-02T23:45:12;16.50;99.90
6421;DHT22;3243;50.958;7.012;2023-07-02T23:47:41;16.50;99.90
6421;DHT22;3243;50.958;7.012;2023-07-02T23:50:10;16.40;99.90
6421;DHT22;3243;50.958;7.012;2023-07-02T23:52:41;16.50;99.90
6421;DHT22;3243;50.958;7.012;2023-07-02T23:55:10;16.50;99.90
6421;DHT22;3243;50.958;7.012;2023-07-02T23:57:37;16.40;99.90
